createdAt,value
2023-05-17T00:00:06.293Z,1.80
2023-05-17T00:01:06.376Z,0.90
2023-05-17T00:02:06.268Z,1.10
2023-05-17T00:03:06.281Z,1.30
2023-05-17T00:04:06.274Z,1.40
2023-05-17T00:05:06.245Z,0.90
2023-05-17T00:06:06.267Z,0.90
2023-05-17T00:07:06.237Z,0.90
2023-05-17T00:08:06.231Z,1.70
2023-05-17T00:09:06.228Z,1.40
2023-05-17T00:10:06.214Z,0.80
2023-05-17T00:11:06.209Z,0.80
2023-05-17T00:12:06.206Z,0.80
2023-05-17T00:13:06.196Z,1.00
2023-05-17T00:14:06.193Z,1.80
2023-05-17T00:15:06.177Z,1.00
2023-05-17T00:16:06.180Z,1.10
2023-05-17T00:17:06.188Z,0.90
2023-05-17T00:18:06.284Z,1.10
2023-05-17T00:19:06.272Z,1.40
2023-05-17T00:20:06.150Z,1.00
2023-05-17T00:21:06.133Z,1.00
2023-05-17T00:22:06.135Z,1.00
2023-05-17T00:23:06.144Z,1.20
2023-05-17T00:24:06.122Z,1.00
2023-05-17T00:25:06.138Z,1.50
2023-05-17T00:26:06.117Z,1.00
2023-05-17T00:27:06.105Z,1.20
2023-05-17T00:28:06.146Z,1.10
2023-05-17T00:29:06.104Z,1.00
2023-05-17T00:30:06.092Z,2.10
2023-05-17T00:31:06.085Z,1.10
2023-05-17T00:32:06.073Z,1.00
2023-05-17T00:33:06.158Z,1.00
2023-05-17T00:34:06.057Z,0.90
2023-05-17T00:35:06.106Z,1.30
2023-05-17T00:36:06.045Z,1.40
2023-05-17T00:37:06.036Z,1.00
2023-05-17T00:38:06.051Z,0.90
2023-05-17T00:39:06.011Z,1.20
2023-05-17T00:40:06.010Z,1.00
2023-05-17T00:41:06.001Z,1.10
2023-05-17T00:42:06.003Z,1.50
2023-05-17T00:43:05.996Z,0.90
2023-05-17T00:44:06.050Z,1.10
2023-05-17T00:45:05.978Z,1.00
2023-05-17T00:46:05.982Z,1.10
2023-05-17T00:47:06.016Z,0.90
2023-05-17T00:48:06.042Z,0.90
2023-05-17T00:49:05.952Z,1.00
2023-05-17T00:50:05.940Z,1.00
2023-05-17T00:51:05.926Z,1.10
2023-05-17T00:52:05.919Z,1.20
2023-05-17T00:53:05.928Z,1.40
2023-05-17T00:54:05.919Z,1.60
2023-05-17T00:55:05.918Z,1.10
2023-05-17T00:56:05.903Z,1.20
2023-05-17T00:57:05.929Z,1.20
2023-05-17T00:58:05.889Z,0.90
2023-05-17T00:59:05.870Z,1.30
2023-05-17T01:00:05.942Z,1.70
2023-05-17T01:01:05.863Z,1.10
2023-05-17T01:02:05.862Z,1.00
2023-05-17T01:03:05.984Z,1.00
2023-05-17T01:04:05.955Z,1.40
2023-05-17T01:05:05.929Z,0.90
2023-05-17T01:06:05.830Z,1.10
2023-05-17T01:07:05.820Z,1.40
2023-05-17T01:08:05.806Z,0.90
2023-05-17T01:09:05.813Z,1.10
2023-05-17T01:10:05.799Z,1.20
2023-05-17T01:11:05.795Z,1.60
2023-05-17T01:12:05.780Z,1.10
2023-05-17T01:13:05.781Z,1.00
2023-05-17T01:14:05.784Z,1.50
2023-05-17T01:15:05.769Z,1.70
2023-05-17T01:16:05.819Z,1.40
2023-05-17T01:17:05.763Z,1.00
2023-05-17T01:18:05.816Z,0.90
2023-05-17T01:19:05.796Z,0.90
2023-05-17T01:20:05.798Z,0.90
2023-05-17T01:21:05.721Z,1.20
2023-05-17T01:22:05.718Z,1.50
2023-05-17T01:23:05.709Z,0.80
2023-05-17T01:24:05.699Z,1.50
2023-05-17T01:25:05.700Z,0.90
2023-05-17T01:26:05.698Z,1.30
2023-05-17T01:27:05.704Z,1.10
2023-05-17T01:28:05.683Z,1.20
2023-05-17T01:29:05.689Z,1.20
2023-05-17T01:30:05.666Z,1.20
2023-05-17T01:31:05.662Z,1.30
2023-05-17T01:32:05.720Z,1.30
2023-05-17T01:33:05.727Z,1.20
2023-05-17T01:34:05.632Z,1.20
2023-05-17T01:35:05.632Z,1.00
2023-05-17T01:36:05.616Z,1.00
2023-05-17T01:37:05.615Z,1.10
2023-05-17T01:38:05.611Z,0.80
2023-05-17T01:39:05.595Z,0.90
2023-05-17T01:40:05.609Z,1.30
2023-05-17T01:41:05.573Z,0.90
2023-05-17T01:42:05.572Z,1.00
2023-05-17T01:43:05.558Z,0.90
2023-05-17T01:44:05.566Z,2.00
2023-05-17T01:45:05.564Z,0.80
2023-05-17T01:46:05.552Z,0.90
2023-05-17T01:47:05.533Z,1.00
2023-05-17T01:48:05.665Z,1.20
2023-05-17T01:49:05.517Z,1.30
2023-05-17T01:50:05.511Z,1.20
2023-05-17T01:51:05.515Z,2.00
2023-05-17T01:52:05.504Z,1.20
2023-05-17T01:53:05.502Z,0.90
2023-05-17T01:54:05.496Z,0.90
2023-05-17T01:55:05.495Z,0.90
2023-05-17T01:56:05.478Z,0.90
2023-05-17T01:57:05.478Z,1.40
2023-05-17T01:58:05.460Z,1.40
2023-05-17T01:59:05.471Z,1.50
2023-05-17T02:00:05.446Z,1.00
2023-05-17T02:01:05.436Z,1.00
2023-05-17T02:02:05.421Z,1.70
2023-05-17T02:03:05.478Z,1.10
2023-05-17T02:04:05.534Z,1.30
2023-05-17T02:05:05.471Z,1.10
2023-05-17T02:06:05.404Z,1.10
2023-05-17T02:07:05.413Z,1.60
2023-05-17T02:08:05.395Z,1.10
2023-05-17T02:09:05.383Z,1.00
2023-05-17T02:10:05.388Z,1.00
2023-05-17T02:11:05.366Z,1.00
2023-05-17T02:12:05.349Z,1.50
2023-05-17T02:13:05.352Z,1.00
2023-05-17T02:14:05.339Z,1.60
2023-05-17T02:15:05.335Z,1.00
2023-05-17T02:16:05.339Z,1.20
2023-05-17T02:17:05.320Z,1.60
2023-05-17T02:18:05.355Z,1.50
2023-05-17T02:19:05.347Z,1.20
2023-05-17T02:20:05.453Z,0.90
2023-05-17T02:21:05.300Z,1.00
2023-05-17T02:22:05.282Z,0.90
2023-05-17T02:23:05.281Z,0.80
2023-05-17T02:24:05.274Z,1.40
2023-05-17T02:25:05.282Z,0.90
2023-05-17T02:26:05.253Z,0.80
2023-05-17T02:27:05.248Z,1.00
2023-05-17T02:28:05.244Z,1.40
2023-05-17T02:29:05.234Z,1.70
2023-05-17T02:30:05.224Z,1.80
2023-05-17T02:31:05.235Z,1.20
2023-05-17T02:32:05.227Z,1.00
2023-05-17T02:33:05.377Z,1.20
2023-05-17T02:34:05.227Z,1.50
2023-05-17T02:35:05.199Z,1.20
2023-05-17T02:36:05.262Z,1.70
2023-05-17T02:37:05.192Z,1.40
2023-05-17T02:38:05.183Z,1.50
2023-05-17T02:39:05.163Z,1.50
2023-05-17T02:40:05.153Z,1.30
2023-05-17T02:41:05.165Z,1.30
2023-05-17T02:42:05.148Z,1.40
2023-05-17T02:43:05.154Z,1.30
2023-05-17T02:44:05.123Z,1.30
2023-05-17T02:45:05.119Z,1.80
2023-05-17T02:46:05.109Z,1.10
2023-05-17T02:47:05.155Z,1.10
2023-05-17T02:48:05.134Z,1.20
2023-05-17T02:49:05.091Z,1.00
2023-05-17T02:50:05.077Z,1.50
2023-05-17T02:51:05.072Z,1.10
2023-05-17T02:52:05.186Z,1.10
2023-05-17T02:53:05.056Z,0.90
2023-05-17T02:54:05.044Z,1.40
2023-05-17T02:55:05.043Z,0.90
2023-05-17T02:56:05.036Z,1.10
2023-05-17T02:57:05.079Z,1.20
2023-05-17T02:58:05.014Z,1.30
2023-05-17T02:59:05.013Z,1.00
2023-05-17T03:00:05.012Z,1.00
2023-05-17T03:01:05.009Z,1.30
2023-05-17T03:02:04.987Z,1.10
2023-05-17T03:03:05.060Z,1.30
2023-05-17T03:04:05.132Z,1.10
2023-05-17T03:05:05.008Z,1.40
2023-05-17T03:06:05.044Z,1.60
2023-05-17T03:07:06.877Z,1.50
2023-05-17T03:08:05.128Z,1.40
2023-05-17T03:09:04.931Z,2.00
2023-05-17T03:10:04.938Z,1.90
2023-05-17T03:11:04.945Z,1.40
2023-05-17T03:12:04.907Z,1.30
2023-05-17T03:13:04.913Z,0.90
2023-05-17T03:14:04.912Z,2.30
2023-05-17T03:15:04.892Z,1.00
2023-05-17T03:16:04.881Z,1.00
2023-05-17T03:17:04.873Z,1.20
2023-05-17T03:18:04.988Z,2.00
2023-05-17T03:19:04.992Z,1.00
2023-05-17T03:20:04.845Z,1.70
2023-05-17T03:21:04.840Z,1.40
2023-05-17T03:22:04.831Z,2.00
2023-05-17T03:23:04.840Z,2.20
2023-05-17T03:24:04.815Z,1.70
2023-05-17T03:25:04.817Z,1.30
2023-05-17T03:26:04.811Z,1.60
2023-05-17T03:27:04.831Z,1.90
2023-05-17T03:28:04.782Z,2.00
2023-05-17T03:29:04.777Z,1.10
2023-05-17T03:30:04.766Z,1.50
2023-05-17T03:31:04.832Z,1.10
2023-05-17T03:32:04.757Z,1.10
2023-05-17T03:33:04.860Z,0.90
2023-05-17T03:34:04.813Z,1.00
2023-05-17T03:35:04.746Z,1.10
2023-05-17T03:36:04.728Z,0.90
2023-05-17T03:37:04.715Z,1.60
2023-05-17T03:38:04.710Z,1.50
2023-05-17T03:39:04.704Z,1.30
2023-05-17T03:40:04.807Z,1.50
2023-05-17T03:41:04.702Z,1.60
2023-05-17T03:42:04.670Z,1.50
2023-05-17T03:43:04.675Z,1.30
2023-05-17T03:44:04.670Z,1.20
2023-05-17T03:45:04.658Z,1.40
2023-05-17T03:46:04.643Z,1.40
2023-05-17T03:47:04.642Z,1.10
2023-05-17T03:48:04.636Z,0.90
2023-05-17T03:49:04.702Z,1.50
2023-05-17T03:50:04.616Z,1.30
2023-05-17T03:51:04.607Z,1.50
2023-05-17T03:52:04.609Z,1.40
2023-05-17T03:53:04.616Z,1.00
2023-05-17T03:54:04.587Z,1.30
2023-05-17T03:55:04.601Z,1.10
2023-05-17T03:56:04.642Z,1.20
2023-05-17T03:57:04.560Z,1.60
2023-05-17T03:58:04.563Z,1.50
2023-05-17T03:59:04.552Z,1.30
2023-05-17T04:00:04.541Z,1.60
2023-05-17T04:01:04.564Z,1.40
2023-05-17T04:02:04.540Z,1.20
2023-05-17T04:03:04.539Z,1.20
2023-05-17T04:04:04.633Z,1.00
2023-05-17T04:05:04.512Z,1.40
2023-05-17T04:06:04.502Z,1.80
2023-05-17T04:07:05.444Z,1.40
2023-05-17T04:08:04.474Z,1.40
2023-05-17T04:09:04.488Z,2.50
2023-05-17T04:10:04.460Z,1.10
2023-05-17T04:11:04.457Z,1.50
2023-05-17T04:12:04.572Z,2.00
2023-05-17T04:13:04.449Z,1.50
2023-05-17T04:14:04.442Z,1.20
2023-05-17T04:15:04.429Z,1.50
2023-05-17T04:16:04.423Z,1.10
2023-05-17T04:17:04.425Z,1.10
2023-05-17T04:18:04.431Z,1.20
2023-05-17T04:19:04.489Z,1.80
2023-05-17T04:20:04.396Z,1.80
2023-05-17T04:21:04.400Z,1.20
2023-05-17T04:22:04.372Z,1.60
2023-05-17T04:23:04.366Z,1.30
2023-05-17T04:24:04.374Z,1.30
2023-05-17T04:25:04.453Z,1.70
2023-05-17T04:26:04.349Z,1.50
2023-05-17T04:27:04.355Z,1.60
2023-05-17T04:28:04.447Z,1.80
2023-05-17T04:29:04.331Z,0.90
2023-05-17T04:30:04.330Z,1.10
2023-05-17T04:31:04.304Z,1.30
2023-05-17T04:32:04.298Z,2.00
2023-05-17T04:33:04.414Z,1.30
2023-05-17T04:34:04.342Z,1.60
2023-05-17T04:35:04.268Z,1.70
2023-05-17T04:36:04.278Z,1.40
2023-05-17T04:37:04.262Z,1.50
2023-05-17T04:38:04.247Z,2.00
2023-05-17T04:39:04.277Z,1.70
2023-05-17T04:40:04.239Z,2.20
2023-05-17T04:41:04.232Z,2.00
2023-05-17T04:42:04.230Z,2.30
2023-05-17T04:43:04.208Z,2.00
2023-05-17T04:44:04.293Z,1.50
2023-05-17T04:45:04.201Z,1.20
2023-05-17T04:46:04.196Z,1.50
2023-05-17T04:47:04.182Z,1.90
2023-05-17T04:48:04.213Z,1.30
2023-05-17T04:49:04.249Z,1.50
2023-05-17T04:50:04.165Z,1.60
2023-05-17T04:51:04.207Z,1.60
2023-05-17T04:52:06.200Z,1.30
2023-05-17T04:53:04.162Z,1.20
2023-05-17T04:54:04.134Z,1.50
2023-05-17T04:55:04.132Z,1.80
2023-05-17T04:56:04.146Z,1.60
2023-05-17T04:57:04.117Z,2.00
2023-05-17T04:58:04.107Z,1.70
2023-05-17T04:59:04.128Z,1.80
2023-05-17T05:00:04.283Z,1.70
2023-05-17T05:01:04.096Z,1.80
2023-05-17T05:02:04.092Z,1.40
2023-05-17T05:03:04.157Z,1.20
2023-05-17T05:04:04.186Z,1.60
2023-05-17T05:05:04.178Z,1.70
2023-05-17T05:06:04.061Z,1.20
2023-05-17T05:07:04.048Z,1.50
2023-05-17T05:08:04.041Z,2.20
2023-05-17T05:09:04.034Z,2.20
2023-05-17T05:10:04.071Z,1.60
2023-05-17T05:11:04.056Z,1.50
2023-05-17T05:12:04.013Z,2.10
2023-05-17T05:13:03.997Z,1.50
2023-05-17T05:14:03.982Z,1.30
2023-05-17T05:15:03.975Z,1.40
2023-05-17T05:16:04.036Z,1.00
2023-05-17T05:17:03.979Z,2.00
2023-05-17T05:18:04.052Z,2.10
2023-05-17T05:19:04.178Z,1.80
2023-05-17T05:20:03.947Z,1.90
2023-05-17T05:21:03.935Z,2.50
2023-05-17T05:22:03.937Z,1.50
2023-05-17T05:23:03.917Z,1.30
2023-05-17T05:24:03.912Z,1.70
2023-05-17T05:25:03.898Z,1.50
2023-05-17T05:26:03.896Z,1.80
2023-05-17T05:27:06.210Z,1.50
2023-05-17T05:28:03.888Z,2.80
2023-05-17T05:29:03.879Z,2.30
2023-05-17T05:30:03.869Z,2.10
2023-05-17T05:31:03.865Z,2.30
2023-05-17T05:32:03.985Z,1.40
2023-05-17T05:33:03.929Z,1.30
2023-05-17T05:34:03.885Z,1.00
2023-05-17T05:35:03.832Z,1.50
2023-05-17T05:36:03.832Z,2.40
2023-05-17T05:37:03.825Z,2.30
2023-05-17T05:38:03.813Z,1.40
2023-05-17T05:39:03.809Z,1.60
2023-05-17T05:40:04.466Z,1.40
2023-05-17T05:41:03.788Z,1.60
2023-05-17T05:42:03.785Z,2.50
2023-05-17T05:43:03.799Z,2.80
2023-05-17T05:44:03.779Z,1.80
2023-05-17T05:45:03.768Z,2.10
2023-05-17T05:46:03.756Z,1.50
2023-05-17T05:47:03.752Z,2.50
2023-05-17T05:48:03.825Z,2.90
2023-05-17T05:49:03.786Z,1.60
2023-05-17T05:50:03.728Z,2.90
2023-05-17T05:51:03.720Z,1.90
2023-05-17T05:52:03.714Z,2.80
2023-05-17T05:53:17.156Z,1.30
2023-05-17T05:54:03.693Z,2.50
2023-05-17T05:55:03.698Z,2.40
2023-05-17T05:56:03.682Z,2.60
2023-05-17T05:57:03.683Z,2.40
2023-05-17T05:58:03.681Z,1.60
2023-05-17T05:59:03.695Z,2.20
2023-05-17T06:00:03.658Z,1.50
2023-05-17T06:01:06.128Z,2.70
2023-05-17T06:02:03.647Z,1.30
2023-05-17T06:03:03.684Z,2.70
2023-05-17T06:04:03.697Z,1.60
2023-05-17T06:05:03.624Z,3.20
2023-05-17T06:06:03.745Z,2.40
2023-05-17T06:07:03.672Z,3.30
2023-05-17T06:08:03.601Z,2.60
2023-05-17T06:09:03.599Z,1.90
2023-05-17T06:10:03.588Z,2.30
2023-05-17T06:11:03.604Z,3.10
2023-05-17T06:12:03.589Z,2.60
2023-05-17T06:13:03.580Z,2.50
2023-05-17T06:14:03.565Z,3.20
2023-05-17T06:15:03.559Z,3.20
2023-05-17T06:16:03.571Z,1.60
2023-05-17T06:17:03.537Z,2.40
2023-05-17T06:18:03.591Z,2.40
2023-05-17T06:19:03.669Z,2.60
2023-05-17T06:20:03.776Z,2.80
2023-05-17T06:21:03.520Z,2.50
2023-05-17T06:22:03.512Z,2.70
2023-05-17T06:23:03.513Z,3.00
2023-05-17T06:24:05.072Z,1.90
2023-05-17T06:25:03.487Z,3.50
2023-05-17T06:26:03.490Z,3.10
2023-05-17T06:27:03.491Z,2.50
2023-05-17T06:28:03.470Z,3.10
2023-05-17T06:29:03.464Z,2.80
2023-05-17T06:30:05.531Z,2.80
2023-05-17T06:31:03.447Z,2.50
2023-05-17T06:32:03.441Z,2.00
2023-05-17T06:33:03.480Z,2.80
2023-05-17T06:34:03.500Z,3.30
2023-05-17T06:35:03.423Z,3.30
2023-05-17T06:37:03.404Z,3.30
2023-05-17T06:38:03.404Z,3.50
2023-05-17T06:39:03.392Z,2.70
2023-05-17T06:40:10.327Z,2.80
2023-05-17T06:41:03.420Z,2.60
2023-05-17T06:42:03.380Z,2.60
2023-05-17T06:43:03.361Z,3.20
2023-05-17T06:44:03.357Z,3.60
2023-05-17T06:45:03.359Z,2.20
2023-05-17T06:46:03.351Z,2.80
2023-05-17T06:47:03.330Z,3.50
2023-05-17T06:48:03.413Z,3.90
2023-05-17T06:49:03.438Z,2.30
2023-05-17T06:50:03.357Z,2.50
2023-05-17T06:51:03.335Z,3.00
2023-05-17T06:52:03.607Z,2.60
2023-05-17T06:53:03.291Z,1.70
2023-05-17T06:54:03.290Z,3.30
2023-05-17T06:55:03.291Z,3.00
2023-05-17T06:56:03.277Z,2.80
2023-05-17T06:57:03.301Z,2.90
2023-05-17T06:58:03.259Z,2.80
2023-05-17T06:59:03.262Z,3.70
2023-05-17T07:00:03.276Z,2.90
2023-05-17T07:01:03.245Z,3.10
2023-05-17T07:02:03.251Z,3.90
2023-05-17T07:03:03.310Z,3.30
2023-05-17T07:04:04.235Z,3.60
2023-05-17T07:05:04.238Z,2.90
2023-05-17T07:06:03.247Z,3.90
2023-05-17T07:07:03.221Z,3.60
2023-05-17T07:08:03.279Z,2.60
2023-05-17T07:09:03.179Z,3.00
2023-05-17T07:10:03.179Z,3.60
2023-05-17T07:11:03.189Z,3.50
2023-05-17T07:12:03.156Z,2.90
2023-05-17T07:13:03.177Z,2.90
2023-05-17T07:14:03.151Z,3.80
2023-05-17T07:15:03.146Z,3.20
2023-05-17T07:16:03.135Z,4.50
2023-05-17T07:17:03.132Z,4.70
2023-05-17T07:18:03.351Z,2.80
2023-05-17T07:19:03.170Z,3.10
2023-05-17T07:20:03.348Z,4.30
2023-05-17T07:21:03.106Z,3.50
2023-05-17T07:22:03.113Z,4.30
2023-05-17T07:23:03.102Z,3.60
2023-05-17T07:24:03.158Z,4.80
2023-05-17T07:25:03.274Z,4.30
2023-05-17T07:26:03.070Z,5.20
2023-05-17T07:27:03.073Z,3.80
2023-05-17T07:28:03.066Z,3.00
2023-05-17T07:29:03.074Z,5.30
2023-05-17T07:30:03.048Z,4.30
2023-05-17T07:31:03.053Z,4.50
2023-05-17T07:32:03.038Z,3.20
2023-05-17T07:33:03.061Z,3.80
2023-05-17T07:34:03.052Z,5.00
2023-05-17T07:35:03.044Z,3.40
2023-05-17T07:36:03.078Z,2.90
2023-05-17T07:37:03.013Z,3.80
2023-05-17T07:38:03.179Z,3.60
2023-05-17T07:39:03.006Z,4.30
2023-05-17T07:40:03.046Z,3.40
2023-05-17T07:41:02.984Z,3.70
2023-05-17T07:42:05.328Z,5.20
2023-05-17T07:43:02.985Z,4.20
2023-05-17T07:44:02.964Z,3.40
2023-05-17T07:45:02.974Z,3.40
2023-05-17T07:46:02.962Z,3.60
2023-05-17T07:47:02.990Z,5.20
2023-05-17T07:48:03.004Z,2.80
2023-05-17T07:49:03.101Z,3.30
2023-05-17T07:50:02.936Z,3.30
2023-05-17T07:51:02.922Z,3.10
2023-05-17T07:52:02.933Z,3.40
2023-05-17T07:53:02.911Z,2.90
2023-05-17T07:54:02.905Z,4.70
2023-05-17T07:55:02.894Z,3.40
2023-05-17T07:56:02.898Z,2.60
2023-05-17T07:57:02.906Z,3.20
2023-05-17T07:58:02.895Z,3.10
2023-05-17T07:59:02.939Z,3.40
2023-05-17T08:00:02.864Z,3.00
2023-05-17T08:01:02.867Z,4.00
2023-05-17T08:02:02.857Z,2.60
2023-05-17T08:03:02.924Z,2.40
2023-05-17T08:04:02.893Z,2.80
2023-05-17T08:05:02.843Z,2.20
2023-05-17T08:06:02.873Z,3.60
2023-05-17T08:07:02.830Z,3.00
2023-05-17T08:08:02.825Z,3.70
2023-05-17T08:09:02.856Z,3.80
2023-05-17T08:10:02.829Z,3.10
2023-05-17T08:11:02.801Z,3.50
2023-05-17T08:12:02.854Z,3.10
2023-05-17T08:13:02.796Z,4.00
2023-05-17T08:14:02.795Z,3.50
2023-05-17T08:15:02.778Z,2.70
2023-05-17T08:16:12.657Z,2.30
2023-05-17T08:17:02.772Z,3.20
2023-05-17T08:18:04.808Z,4.20
2023-05-17T08:19:02.956Z,3.20
2023-05-17T08:20:02.796Z,3.30
2023-05-17T08:21:02.750Z,2.90
2023-05-17T08:22:02.766Z,2.70
2023-05-17T08:23:02.808Z,3.00
2023-05-17T08:24:04.106Z,2.60
2023-05-17T08:25:02.745Z,2.50
2023-05-17T08:26:02.719Z,1.90
2023-05-17T08:27:02.729Z,2.30
2023-05-17T08:28:02.705Z,2.10
2023-05-17T08:29:02.706Z,1.90
2023-05-17T08:30:04.119Z,3.00
2023-05-17T08:31:02.705Z,1.80
2023-05-17T08:32:02.680Z,2.30
2023-05-17T08:33:02.781Z,1.80
2023-05-17T08:34:02.715Z,2.00
2023-05-17T08:35:02.718Z,1.80
2023-05-17T08:36:02.682Z,1.60
2023-05-17T08:37:02.682Z,1.90
2023-05-17T08:38:02.662Z,1.60
2023-05-17T08:39:02.662Z,1.50
2023-05-17T08:40:02.687Z,1.70
2023-05-17T08:41:02.640Z,2.60
2023-05-17T08:42:02.661Z,2.00
2023-05-17T08:43:02.628Z,2.00
2023-05-17T08:44:02.716Z,1.70
2023-05-17T08:45:02.639Z,1.60
2023-05-17T08:46:02.614Z,2.50
2023-05-17T08:47:02.606Z,2.10
2023-05-17T08:48:02.661Z,2.20
2023-05-17T08:49:02.906Z,2.40
2023-05-17T08:50:02.596Z,2.10
2023-05-17T08:51:02.621Z,1.60
2023-05-17T08:52:02.575Z,1.80
2023-05-17T08:53:02.616Z,1.90
2023-05-17T08:54:02.566Z,2.00
2023-05-17T08:55:02.607Z,1.60
2023-05-17T08:56:02.613Z,1.40
2023-05-17T08:57:02.572Z,2.00
2023-05-17T08:58:02.615Z,1.40
2023-05-17T08:59:02.548Z,1.40
2023-05-17T09:00:02.655Z,1.80
2023-05-17T09:01:02.539Z,1.70
2023-05-17T09:02:02.576Z,2.00
2023-05-17T09:03:02.599Z,1.10
2023-05-17T09:04:02.519Z,1.20
2023-05-17T09:05:02.731Z,1.40
2023-05-17T09:06:02.552Z,1.60
2023-05-17T09:07:02.501Z,1.20
2023-05-17T09:08:02.510Z,2.20
2023-05-17T09:09:02.499Z,1.40
2023-05-17T09:10:02.511Z,1.50
2023-05-17T09:11:02.501Z,1.80
2023-05-17T09:12:02.472Z,2.00
2023-05-17T09:13:02.468Z,1.30
2023-05-17T09:14:02.471Z,1.80
2023-05-17T09:15:02.470Z,1.90
2023-05-17T09:16:02.503Z,1.40
2023-05-17T09:17:02.458Z,1.60
2023-05-17T09:18:02.641Z,1.50
2023-05-17T09:19:02.532Z,1.10
2023-05-17T09:20:02.495Z,1.90
2023-05-17T09:21:02.443Z,1.60
2023-05-17T09:22:02.463Z,1.30
2023-05-17T09:23:02.428Z,1.70
2023-05-17T09:24:07.152Z,1.30
2023-05-17T09:25:02.420Z,1.30
2023-05-17T09:26:02.409Z,1.40
2023-05-17T09:27:02.424Z,1.80
2023-05-17T09:28:02.407Z,1.40
2023-05-17T09:29:02.416Z,1.60
2023-05-17T09:30:02.443Z,2.40
2023-05-17T09:31:02.392Z,1.20
2023-05-17T09:32:02.390Z,1.60
2023-05-17T09:33:02.387Z,1.40
2023-05-17T09:34:02.508Z,1.60
2023-05-17T09:35:02.382Z,1.20
2023-05-17T09:36:02.375Z,1.10
2023-05-17T09:37:02.374Z,1.60
2023-05-17T09:38:02.377Z,1.70
2023-05-17T09:39:02.424Z,1.70
2023-05-17T09:40:02.375Z,1.20
2023-05-17T09:41:02.368Z,1.80
2023-05-17T09:42:02.357Z,1.20
2023-05-17T09:43:02.392Z,1.60
2023-05-17T09:44:02.344Z,1.20
2023-05-17T09:45:02.341Z,1.40
2023-05-17T09:46:02.333Z,1.70
2023-05-17T09:47:02.334Z,1.70
2023-05-17T09:48:02.492Z,1.60
2023-05-17T09:49:02.494Z,1.60
2023-05-17T09:50:02.344Z,1.40
2023-05-17T09:51:02.345Z,1.20
2023-05-17T09:52:02.327Z,1.40
2023-05-17T09:53:02.318Z,1.20
2023-05-17T09:54:02.321Z,0.90
2023-05-17T09:55:02.368Z,1.10
2023-05-17T09:56:02.331Z,1.00
2023-05-17T09:57:02.315Z,1.40
2023-05-17T09:58:02.302Z,1.50
2023-05-17T09:59:02.311Z,1.10
2023-05-17T10:00:02.301Z,1.20
2023-05-17T10:01:02.314Z,1.40
2023-05-17T10:02:02.321Z,1.80
2023-05-17T10:03:02.474Z,1.10
2023-05-17T10:04:02.562Z,1.40
2023-05-17T10:05:02.393Z,1.50
2023-05-17T10:06:02.296Z,1.40
2023-05-17T10:07:02.289Z,1.70
2023-05-17T10:08:02.283Z,1.40
2023-05-17T10:09:02.288Z,1.20
2023-05-17T10:10:02.304Z,1.40
2023-05-17T10:11:02.313Z,1.40
2023-05-17T10:12:02.269Z,1.50
2023-05-17T10:13:02.267Z,1.10
2023-05-17T10:14:02.266Z,1.50
2023-05-17T10:15:02.315Z,0.90
2023-05-17T10:16:02.256Z,1.10
2023-05-17T10:17:02.265Z,1.90
2023-05-17T10:18:02.379Z,1.90
2023-05-17T10:19:02.343Z,1.20
2023-05-17T10:20:02.382Z,2.30
2023-05-17T10:21:02.261Z,1.10
2023-05-17T10:22:21.230Z,0.90
2023-05-17T10:23:02.245Z,1.60
2023-05-17T10:24:02.244Z,1.30
2023-05-17T10:25:02.255Z,1.20
2023-05-17T10:26:02.245Z,1.20
2023-05-17T10:27:02.262Z,1.50
2023-05-17T10:28:02.247Z,1.50
2023-05-17T10:29:02.277Z,1.50
2023-05-17T10:30:02.247Z,1.10
2023-05-17T10:31:02.228Z,1.50
2023-05-17T10:32:02.231Z,1.20
2023-05-17T10:33:02.412Z,1.70
2023-05-17T10:34:02.310Z,1.30
2023-05-17T10:35:11.419Z,1.60
2023-05-17T10:36:02.246Z,1.30
2023-05-17T10:37:02.227Z,1.70
2023-05-17T10:38:02.223Z,1.10
2023-05-17T10:39:02.223Z,1.10
2023-05-17T10:40:02.236Z,1.70
2023-05-17T10:41:02.347Z,1.40
2023-05-17T10:43:02.215Z,1.40
2023-05-17T10:44:02.219Z,1.10
2023-05-17T10:45:02.309Z,1.60
2023-05-17T10:46:02.219Z,1.10
2023-05-17T10:47:02.244Z,1.70
2023-05-17T10:48:02.292Z,1.40
2023-05-17T10:49:02.386Z,1.40
2023-05-17T10:50:02.219Z,1.40
2023-05-17T10:51:02.252Z,1.30
2023-05-17T10:52:02.295Z,1.50
2023-05-17T10:53:02.231Z,1.10
2023-05-17T10:54:02.218Z,1.90
2023-05-17T10:55:02.218Z,1.40
2023-05-17T10:56:02.231Z,1.00
2023-05-17T10:57:02.222Z,1.70
2023-05-17T10:58:02.224Z,1.60
2023-05-17T10:59:02.219Z,1.70
2023-05-17T11:00:02.220Z,1.40
2023-05-17T11:01:02.212Z,2.00
2023-05-17T11:02:02.211Z,1.80
2023-05-17T11:03:02.265Z,1.80
2023-05-17T11:04:02.208Z,1.80
2023-05-17T11:05:02.431Z,1.50
2023-05-17T11:06:02.313Z,1.30
2023-05-17T11:07:05.169Z,1.30
2023-05-17T11:08:02.221Z,1.30
2023-05-17T11:09:02.211Z,1.40
2023-05-17T11:10:02.204Z,1.80
2023-05-17T11:11:02.216Z,1.40
2023-05-17T11:12:02.222Z,1.60
2023-05-17T11:13:02.215Z,1.40
2023-05-17T11:14:02.210Z,1.70
2023-05-17T11:15:02.208Z,1.40
2023-05-17T11:16:02.218Z,1.60
2023-05-17T11:17:02.218Z,1.60
2023-05-17T11:18:02.278Z,1.80
2023-05-17T11:19:02.364Z,2.10
2023-05-17T11:20:02.433Z,1.90
2023-05-17T11:21:02.397Z,1.30
2023-05-17T11:22:02.206Z,1.40
2023-05-17T11:23:02.221Z,1.60
2023-05-17T11:24:02.208Z,1.60
2023-05-17T11:25:02.214Z,2.10
2023-05-17T11:26:12.867Z,1.60
2023-05-17T11:27:02.210Z,1.70
2023-05-17T11:28:02.218Z,1.30
2023-05-17T11:29:02.250Z,1.20
2023-05-17T11:30:02.205Z,1.10
2023-05-17T11:31:02.193Z,1.50
2023-05-17T11:32:02.209Z,1.20
2023-05-17T11:33:02.234Z,1.70
2023-05-17T11:34:02.222Z,1.40
2023-05-17T11:35:02.193Z,1.10
2023-05-17T11:36:02.187Z,1.80
2023-05-17T11:37:02.189Z,1.20
2023-05-17T11:38:02.187Z,1.70
2023-05-17T11:39:08.004Z,1.70
2023-05-17T11:40:02.199Z,1.60
2023-05-17T11:41:02.665Z,1.10
2023-05-17T11:42:02.189Z,1.50
2023-05-17T11:43:02.165Z,1.90
2023-05-17T11:44:02.168Z,1.20
2023-05-17T11:45:02.200Z,1.60
2023-05-17T11:46:02.156Z,2.00
2023-05-17T11:47:02.206Z,1.30
2023-05-17T11:48:02.246Z,1.20
2023-05-17T11:49:02.157Z,1.70
2023-05-17T11:50:02.146Z,1.40
2023-05-17T11:51:02.605Z,1.60
2023-05-17T11:52:02.139Z,1.70
2023-05-17T11:53:02.138Z,1.30
2023-05-17T11:54:02.136Z,1.50
2023-05-17T11:55:02.156Z,1.70
2023-05-17T11:56:02.193Z,1.40
2023-05-17T11:57:02.127Z,1.80
2023-05-17T11:58:02.150Z,1.20
2023-05-17T11:59:02.132Z,2.00
2023-05-17T12:00:02.109Z,1.50
2023-05-17T12:01:02.122Z,1.50
2023-05-17T12:02:02.108Z,1.50
2023-05-17T12:03:02.166Z,1.70
2023-05-17T12:04:02.189Z,1.70
2023-05-17T12:05:02.238Z,1.30
2023-05-17T12:06:02.129Z,1.60
2023-05-17T12:07:02.088Z,1.10
2023-05-17T12:08:02.080Z,1.70
2023-05-17T12:09:02.089Z,1.40
2023-05-17T12:10:02.081Z,1.30
2023-05-17T12:11:02.102Z,2.00
2023-05-17T12:12:02.070Z,1.40
2023-05-17T12:13:02.064Z,1.00
2023-05-17T12:14:02.062Z,1.60
2023-05-17T12:15:02.068Z,1.90
2023-05-17T12:16:02.073Z,1.50
2023-05-17T12:17:02.058Z,1.10
2023-05-17T12:18:02.090Z,1.10
2023-05-17T12:19:02.250Z,1.60
2023-05-17T12:20:02.117Z,1.60
2023-05-17T12:21:02.044Z,1.70
2023-05-17T12:22:02.034Z,1.30
2023-05-17T12:23:02.038Z,1.00
2023-05-17T12:24:02.022Z,1.10
2023-05-17T12:25:02.039Z,1.30
2023-05-17T12:26:02.024Z,1.40
2023-05-17T12:27:02.016Z,1.40
2023-05-17T12:28:02.005Z,1.70
2023-05-17T12:29:02.004Z,1.20
2023-05-17T12:30:02.001Z,1.60
2023-05-17T12:31:02.004Z,1.50
2023-05-17T12:32:01.991Z,1.20
2023-05-17T12:33:02.043Z,1.60
2023-05-17T12:34:02.050Z,1.40
2023-05-17T12:35:01.988Z,1.10
2023-05-17T12:36:01.987Z,1.20
2023-05-17T12:37:01.969Z,2.00
2023-05-17T12:38:01.968Z,1.70
2023-05-17T12:39:02.035Z,1.10
2023-05-17T12:40:01.969Z,1.40
2023-05-17T12:41:01.979Z,1.10
2023-05-17T12:42:01.958Z,1.30
2023-05-17T12:43:01.999Z,0.90
2023-05-17T12:44:13.538Z,1.30
2023-05-17T12:45:01.955Z,1.50
2023-05-17T12:46:03.729Z,1.30
2023-05-17T12:47:01.949Z,1.20
2023-05-17T12:48:01.939Z,1.40
2023-05-17T12:49:01.961Z,1.30
2023-05-17T12:50:01.920Z,1.30
2023-05-17T12:51:01.922Z,1.60
2023-05-17T12:52:01.918Z,1.50
2023-05-17T12:53:01.925Z,1.60
2023-05-17T12:54:01.911Z,1.00
2023-05-17T12:55:01.905Z,1.90
2023-05-17T12:56:01.912Z,1.80
2023-05-17T12:57:01.897Z,1.20
2023-05-17T12:58:01.916Z,1.90
2023-05-17T12:59:01.897Z,1.00
2023-05-17T13:00:01.894Z,1.30
2023-05-17T13:01:01.874Z,1.40
2023-05-17T13:02:01.878Z,1.10
2023-05-17T13:03:02.056Z,1.20
2023-05-17T13:04:01.977Z,1.20
2023-05-17T13:05:02.059Z,2.00
2023-05-17T13:06:01.884Z,1.30
2023-05-17T13:07:01.884Z,1.00
2023-05-17T13:08:01.855Z,1.50
2023-05-17T13:09:01.863Z,1.60
2023-05-17T13:10:01.857Z,1.10
2023-05-17T13:11:01.854Z,1.40
2023-05-17T13:12:01.854Z,1.40
2023-05-17T13:13:01.845Z,2.00
2023-05-17T13:14:01.857Z,1.10
2023-05-17T13:15:01.840Z,1.20
2023-05-17T13:16:01.853Z,1.50
2023-05-17T13:17:01.882Z,1.60
2023-05-17T13:18:01.890Z,1.20
2023-05-17T13:19:01.887Z,1.30
2023-05-17T13:20:01.928Z,1.50